createdAt,value
2018-09-27T00:00:20.886Z,9.70
2018-09-27T00:02:49.295Z,9.60
2018-09-27T00:05:17.803Z,9.60
2018-09-27T00:07:46.412Z,9.60
2018-09-27T00:10:14.890Z,9.60
2018-09-27T00:12:43.270Z,9.70
2018-09-27T00:15:11.678Z,9.70
2018-09-27T00:17:40.082Z,9.60
2018-09-27T00:20:08.497Z,9.80
2018-09-27T00:22:36.964Z,9.80
2018-09-27T00:25:05.925Z,9.80
2018-09-27T00:27:34.328Z,9.80
2018-09-27T00:30:02.781Z,9.70
2018-09-27T00:32:31.188Z,9.60
2018-09-27T00:34:59.575Z,9.60
2018-09-27T00:37:28.048Z,9.60
2018-09-27T00:39:56.697Z,9.60
2018-09-27T00:42:25.178Z,9.50
2018-09-27T00:44:53.907Z,9.50
2018-09-27T00:47:22.403Z,9.50
2018-09-27T00:49:51.112Z,9.50
2018-09-27T00:52:19.583Z,9.50
2018-09-27T00:54:48.225Z,9.40
2018-09-27T00:57:16.744Z,9.30
2018-09-27T00:59:45.397Z,9.30
2018-09-27T01:02:13.898Z,9.20
2018-09-27T01:04:42.937Z,9.10
2018-09-27T01:07:11.440Z,9.10
2018-09-27T01:09:39.972Z,9.10
2018-09-27T01:12:08.484Z,9.10
2018-09-27T01:14:36.943Z,9.10
2018-09-27T01:17:05.408Z,9.00
2018-09-27T01:19:33.847Z,9.10
2018-09-27T01:22:02.283Z,9.10
2018-09-27T01:24:30.823Z,9.10
2018-09-27T01:26:59.229Z,9.00
2018-09-27T01:29:27.625Z,9.00
2018-09-27T01:31:56.030Z,9.00
2018-09-27T01:34:24.647Z,8.80
2018-09-27T01:36:53.077Z,8.90
2018-09-27T01:39:21.608Z,8.90
2018-09-27T01:41:50.019Z,8.90
2018-09-27T01:44:18.754Z,8.80
2018-09-27T01:46:47.189Z,8.90
2018-09-27T01:49:15.601Z,8.80
2018-09-27T01:51:44.511Z,8.80
2018-09-27T01:54:13.194Z,8.80
2018-09-27T01:56:41.593Z,8.80
2018-09-27T01:59:10.025Z,8.70
2018-09-27T02:01:38.430Z,8.70
2018-09-27T02:04:06.974Z,8.70
2018-09-27T02:06:35.455Z,8.60
2018-09-27T02:09:05.820Z,8.60
2018-09-27T02:11:34.243Z,8.60
2018-09-27T02:14:02.811Z,8.60
2018-09-27T02:16:31.296Z,8.50
2018-09-27T02:18:59.877Z,8.50
2018-09-27T02:21:28.300Z,8.50
2018-09-27T02:23:56.711Z,8.50
2018-09-27T02:26:25.354Z,8.50
2018-09-27T02:28:53.948Z,8.40
2018-09-27T02:31:22.467Z,8.30
2018-09-27T02:33:50.855Z,8.30
2018-09-27T02:36:19.326Z,8.30
2018-09-27T02:38:47.723Z,8.20
2018-09-27T02:41:16.151Z,8.30
2018-09-27T02:43:44.541Z,8.20
2018-09-27T02:46:12.959Z,8.20
2018-09-27T02:48:41.951Z,8.20
2018-09-27T02:51:10.516Z,8.20
2018-09-27T02:53:39.206Z,8.30
2018-09-27T02:56:07.623Z,8.20
2018-09-27T02:58:36.038Z,8.20
2018-09-27T03:01:04.481Z,8.20
2018-09-27T03:03:32.892Z,8.10
2018-09-27T03:06:01.317Z,8.10
2018-09-27T03:08:29.731Z,8.10
2018-09-27T03:10:58.104Z,8.00
2018-09-27T03:13:26.485Z,7.90
2018-09-27T03:15:54.893Z,7.90
2018-09-27T03:18:23.400Z,7.90
2018-09-27T03:20:51.972Z,7.80
2018-09-27T03:23:20.543Z,7.80
2018-09-27T03:25:49.201Z,7.80
2018-09-27T03:28:18.822Z,7.90
2018-09-27T03:30:47.705Z,7.90
2018-09-27T03:33:16.227Z,7.90
2018-09-27T03:35:46.919Z,7.90
2018-09-27T03:38:15.525Z,7.90
2018-09-27T03:40:44.252Z,7.80
2018-09-27T03:43:12.577Z,7.80
2018-09-27T03:45:41.003Z,7.70
2018-09-27T03:48:09.505Z,7.70
2018-09-27T03:50:37.910Z,7.60
2018-09-27T03:53:06.467Z,7.60
2018-09-27T03:55:34.903Z,7.60
2018-09-27T03:58:03.342Z,7.50
2018-09-27T04:00:31.756Z,7.40
2018-09-27T04:03:00.396Z,7.40
2018-09-27T04:05:28.797Z,7.30
2018-09-27T04:07:57.237Z,7.30
2018-09-27T04:10:25.647Z,7.40
2018-09-27T04:12:54.107Z,7.50
2018-09-27T04:15:22.856Z,7.60
2018-09-27T04:17:51.255Z,7.60
2018-09-27T04:20:19.786Z,7.60
2018-09-27T04:22:48.199Z,7.50
2018-09-27T04:25:16.601Z,7.60
2018-09-27T04:27:45.148Z,7.60
2018-09-27T04:30:13.643Z,7.50
2018-09-27T04:32:42.064Z,7.50
2018-09-27T04:35:10.592Z,7.40
2018-09-27T04:37:39.105Z,7.30
2018-09-27T04:40:07.636Z,7.20
2018-09-27T04:42:36.144Z,7.30
2018-09-27T04:45:04.927Z,7.20
2018-09-27T04:47:33.337Z,7.20
2018-09-27T04:50:01.746Z,7.20
2018-09-27T04:52:30.168Z,7.20
2018-09-27T04:54:58.792Z,7.20
2018-09-27T04:57:27.257Z,7.20
2018-09-27T04:59:55.698Z,7.20
2018-09-27T05:02:24.114Z,7.20
2018-09-27T05:04:52.555Z,7.20
2018-09-27T05:07:20.962Z,7.20
2018-09-27T05:09:49.374Z,7.10
2018-09-27T05:12:18.505Z,7.00
2018-09-27T05:14:46.950Z,7.00
2018-09-27T05:17:15.363Z,7.10
2018-09-27T05:19:43.881Z,7.00
2018-09-27T05:22:12.270Z,7.00
2018-09-27T05:24:40.686Z,7.10
2018-09-27T05:27:09.449Z,7.00
2018-09-27T05:29:37.821Z,7.10
2018-09-27T05:32:06.564Z,7.00
2018-09-27T05:34:35.000Z,7.00
2018-09-27T05:37:03.416Z,7.00
2018-09-27T05:39:31.842Z,7.00
2018-09-27T05:42:00.386Z,7.00
2018-09-27T05:44:28.848Z,7.00
2018-09-27T05:46:57.269Z,7.00
2018-09-27T05:49:25.784Z,7.00
2018-09-27T05:51:54.185Z,7.00
2018-09-27T05:54:22.610Z,6.90
2018-09-27T05:56:51.123Z,7.00
2018-09-27T05:59:19.646Z,7.00
2018-09-27T06:01:48.093Z,7.10
2018-09-27T06:04:16.622Z,7.00
2018-09-27T06:06:45.071Z,7.20
2018-09-27T06:09:13.624Z,7.20
2018-09-27T06:11:42.531Z,7.20
2018-09-27T06:14:10.945Z,7.30
2018-09-27T06:16:39.605Z,7.30
2018-09-27T06:19:08.836Z,7.40
2018-09-27T06:21:37.879Z,7.30
2018-09-27T06:24:06.547Z,7.40
2018-09-27T06:26:35.061Z,7.40
2018-09-27T06:29:03.837Z,7.40
2018-09-27T06:31:32.299Z,7.40
2018-09-27T06:34:00.775Z,7.50
2018-09-27T06:36:29.211Z,7.50
2018-09-27T06:38:57.640Z,7.60
2018-09-27T06:41:26.468Z,7.60
2018-09-27T06:43:54.823Z,7.60
2018-09-27T06:46:23.366Z,7.60
2018-09-27T06:48:51.876Z,7.70
2018-09-27T06:51:20.248Z,7.70
2018-09-27T06:53:48.667Z,7.70
2018-09-27T06:56:17.174Z,7.80
2018-09-27T06:58:45.525Z,7.80
2018-09-27T07:01:13.936Z,7.80
2018-09-27T07:03:42.362Z,7.90
2018-09-27T07:06:10.773Z,8.00
2018-09-27T07:08:39.225Z,8.00
2018-09-27T07:11:07.647Z,8.00
2018-09-27T07:13:36.091Z,8.10
2018-09-27T07:16:04.499Z,8.10
2018-09-27T07:18:33.170Z,8.20
2018-09-27T07:21:01.639Z,8.20
2018-09-27T07:23:30.053Z,8.30
2018-09-27T07:25:58.451Z,8.30
2018-09-27T07:28:26.865Z,8.40
2018-09-27T07:30:55.349Z,8.40
2018-09-27T07:33:23.830Z,8.50
2018-09-27T07:35:52.285Z,8.50
2018-09-27T07:38:20.716Z,8.60
2018-09-27T07:40:49.121Z,8.70
2018-09-27T07:43:17.693Z,8.70
2018-09-27T07:45:46.114Z,8.80
2018-09-27T07:48:14.540Z,8.80
2018-09-27T07:50:43.003Z,8.90
2018-09-27T07:53:11.429Z,9.00
2018-09-27T07:55:39.986Z,9.00
2018-09-27T07:58:08.752Z,9.20
2018-09-27T08:00:40.291Z,9.20
2018-09-27T08:03:09.211Z,9.30
2018-09-27T08:05:38.078Z,9.30
2018-09-27T08:08:06.836Z,9.40
2018-09-27T08:10:35.381Z,9.50
2018-09-27T08:13:03.817Z,9.60
2018-09-27T08:15:32.227Z,9.80
2018-09-27T08:18:00.657Z,10.00
2018-09-27T08:20:29.087Z,11.00
2018-09-27T08:22:57.669Z,14.10
2018-09-27T08:25:26.172Z,17.70
2018-09-27T08:27:54.681Z,20.40
2018-09-27T08:30:23.534Z,21.80
2018-09-27T08:32:52.004Z,23.70
2018-09-27T08:35:20.448Z,24.40
2018-09-27T08:37:48.916Z,25.00
2018-09-27T08:40:17.417Z,26.60
2018-09-27T08:42:45.819Z,27.60
2018-09-27T08:45:14.550Z,28.10
2018-09-27T08:47:42.795Z,28.30
2018-09-27T08:50:11.235Z,30.40
2018-09-27T08:52:40.217Z,29.70
2018-09-27T08:55:08.675Z,30.50
2018-09-27T08:57:37.185Z,30.70
2018-09-27T09:00:06.008Z,30.10
2018-09-27T09:02:34.459Z,29.70
2018-09-27T09:05:02.917Z,30.70
2018-09-27T09:07:31.394Z,30.60
2018-09-27T09:09:59.798Z,31.20
2018-09-27T09:12:28.232Z,31.80
2018-09-27T09:14:56.687Z,31.80
2018-09-27T09:17:25.239Z,31.00
2018-09-27T09:19:53.670Z,30.10
2018-09-27T09:22:22.127Z,31.40
2018-09-27T09:24:50.672Z,32.10
2018-09-27T09:27:19.070Z,32.60
2018-09-27T09:29:47.650Z,32.40
2018-09-27T09:32:16.304Z,31.60
2018-09-27T09:34:44.822Z,31.00
2018-09-27T09:37:13.262Z,33.10
2018-09-27T09:39:41.769Z,33.60
2018-09-27T09:42:10.191Z,33.80
2018-09-27T09:44:38.604Z,32.30
2018-09-27T09:47:07.225Z,33.30
2018-09-27T09:49:35.636Z,33.10
2018-09-27T09:52:04.167Z,33.50
2018-09-27T09:54:32.584Z,34.20
2018-09-27T09:57:01.017Z,34.40
2018-09-27T09:59:29.656Z,33.50
2018-09-27T10:01:58.059Z,33.20
2018-09-27T10:04:26.527Z,32.60
2018-09-27T10:06:54.957Z,31.50
2018-09-27T10:09:23.498Z,32.60
2018-09-27T10:11:51.921Z,33.60
2018-09-27T10:14:20.337Z,34.90
2018-09-27T10:16:48.742Z,35.00
2018-09-27T10:19:17.153Z,35.70
2018-09-27T10:21:45.684Z,36.90
2018-09-27T10:24:14.211Z,36.70
2018-09-27T10:26:42.631Z,36.40
2018-09-27T10:29:11.036Z,36.90
2018-09-27T10:31:39.615Z,36.40
2018-09-27T10:34:08.082Z,36.50
2018-09-27T10:36:36.563Z,37.50
2018-09-27T10:39:07.672Z,37.70
2018-09-27T10:41:36.076Z,37.40
2018-09-27T10:44:04.543Z,37.80
2018-09-27T10:46:33.059Z,37.40
2018-09-27T10:49:01.478Z,36.90
2018-09-27T10:51:29.950Z,36.40
2018-09-27T10:53:58.348Z,35.70
2018-09-27T10:56:26.781Z,37.10
2018-09-27T10:58:55.197Z,37.60
2018-09-27T11:01:23.628Z,38.20
2018-09-27T11:03:52.036Z,37.90
2018-09-27T11:06:20.450Z,38.80
2018-09-27T11:08:48.877Z,37.60
2018-09-27T11:11:17.301Z,37.90
2018-09-27T11:13:45.714Z,37.90
2018-09-27T11:16:14.148Z,37.10
2018-09-27T11:18:42.591Z,36.70
2018-09-27T11:21:11.016Z,37.00
2018-09-27T11:23:39.429Z,37.30
2018-09-27T11:26:07.909Z,36.40
2018-09-27T11:28:41.732Z,35.90
2018-09-27T11:31:15.301Z,35.50
2018-09-27T11:33:43.707Z,36.10
2018-09-27T11:36:12.545Z,36.30
2018-09-27T11:38:40.966Z,36.70
2018-09-27T11:41:09.343Z,37.50
2018-09-27T11:43:37.741Z,37.00
2018-09-27T11:46:06.177Z,37.50
2018-09-27T11:48:34.591Z,35.80
2018-09-27T11:51:03.069Z,36.40
2018-09-27T11:53:31.548Z,37.60
2018-09-27T11:56:00.050Z,38.60
2018-09-27T11:58:28.441Z,38.30
2018-09-27T12:00:56.906Z,38.40
2018-09-27T12:03:25.413Z,39.30
2018-09-27T12:05:53.850Z,38.40
2018-09-27T12:08:22.315Z,38.20
2018-09-27T12:10:51.295Z,38.30
2018-09-27T12:13:19.741Z,38.20
2018-09-27T12:15:48.136Z,37.60
2018-09-27T12:18:16.564Z,38.40
2018-09-27T12:20:44.982Z,38.10
2018-09-27T12:23:13.401Z,38.00
2018-09-27T12:25:41.921Z,37.40
2018-09-27T12:28:10.310Z,37.40
2018-09-27T12:30:38.751Z,37.10
2018-09-27T12:33:07.303Z,37.10
2018-09-27T12:35:35.748Z,36.20
2018-09-27T12:38:04.170Z,36.10
2018-09-27T12:40:33.558Z,36.30
2018-09-27T12:43:02.070Z,36.00
2018-09-27T12:45:30.606Z,35.50
2018-09-27T12:47:59.054Z,36.20
2018-09-27T12:50:27.531Z,35.70
2018-09-27T12:52:56.028Z,36.10
2018-09-27T12:55:24.383Z,36.10
2018-09-27T12:57:52.840Z,35.60
2018-09-27T13:00:21.264Z,36.70
2018-09-27T13:02:49.800Z,36.50
2018-09-27T13:05:18.103Z,36.40
2018-09-27T13:07:46.495Z,35.60
2018-09-27T13:10:14.975Z,34.50
2018-09-27T13:12:43.395Z,34.00
2018-09-27T13:15:11.908Z,34.00
2018-09-27T13:17:40.346Z,34.10
2018-09-27T13:20:09.111Z,34.30
2018-09-27T13:22:38.420Z,34.10
2018-09-27T13:25:06.954Z,33.70
2018-09-27T13:27:35.478Z,34.00
2018-09-27T13:30:04.337Z,33.60
2018-09-27T13:32:32.748Z,33.60
2018-09-27T13:35:01.177Z,33.30
2018-09-27T13:37:29.655Z,32.80
2018-09-27T13:39:58.183Z,32.40
2018-09-27T13:42:26.691Z,32.50
2018-09-27T13:44:55.157Z,33.20
2018-09-27T13:47:23.573Z,33.60
2018-09-27T13:49:51.983Z,32.50
2018-09-27T13:52:20.393Z,32.00
2018-09-27T13:54:48.797Z,31.90
2018-09-27T13:57:17.329Z,32.40
2018-09-27T13:59:45.711Z,32.90
2018-09-27T14:02:14.123Z,32.70
2018-09-27T14:04:42.556Z,32.60
2018-09-27T14:07:10.999Z,32.60
2018-09-27T14:09:39.442Z,32.80
2018-09-27T14:12:07.872Z,32.40
2018-09-27T14:14:36.646Z,32.20
2018-09-27T14:17:05.198Z,32.20
2018-09-27T14:19:33.557Z,31.70
2018-09-27T14:22:02.062Z,31.20
2018-09-27T14:24:30.511Z,30.60
2018-09-27T14:26:58.977Z,29.40
2018-09-27T14:29:27.392Z,28.70
2018-09-27T14:31:55.786Z,28.50
2018-09-27T14:34:24.224Z,27.90
2018-09-27T14:36:52.637Z,27.60
2018-09-27T14:39:21.184Z,27.10
2018-09-27T14:41:49.584Z,26.60
2018-09-27T14:44:18.000Z,26.50
2018-09-27T14:46:46.528Z,26.00
2018-09-27T14:49:14.940Z,25.80
2018-09-27T14:51:43.368Z,25.60
2018-09-27T14:54:11.867Z,25.60
2018-09-27T14:56:40.304Z,25.50
2018-09-27T14:59:08.749Z,25.70
2018-09-27T15:01:37.186Z,25.60
2018-09-27T15:04:05.895Z,25.20
2018-09-27T15:06:34.530Z,25.10
2018-09-27T15:09:02.948Z,25.10
2018-09-27T15:11:31.381Z,25.00
2018-09-27T15:13:59.816Z,24.80
2018-09-27T15:16:28.419Z,24.70
2018-09-27T15:18:56.931Z,24.60
2018-09-27T15:21:25.428Z,24.60
2018-09-27T15:23:54.009Z,24.50
2018-09-27T15:26:22.473Z,24.50
2018-09-27T15:28:50.935Z,24.30
2018-09-27T15:31:19.386Z,24.00
2018-09-27T15:33:47.852Z,23.80
2018-09-27T15:36:16.292Z,23.80
2018-09-27T15:38:44.703Z,23.80
2018-09-27T15:41:13.122Z,23.70
2018-09-27T15:43:41.528Z,23.70
2018-09-27T15:46:09.943Z,23.50
2018-09-27T15:48:38.523Z,23.40
2018-09-27T15:51:07.048Z,23.20
2018-09-27T15:53:35.520Z,23.20
2018-09-27T15:56:03.994Z,23.20
2018-09-27T15:58:33.172Z,23.10
2018-09-27T16:01:01.679Z,23.10
2018-09-27T16:03:30.111Z,23.00
2018-09-27T16:05:59.466Z,22.80
2018-09-27T16:08:27.891Z,22.70
2018-09-27T16:10:56.430Z,22.70
2018-09-27T16:13:24.996Z,22.50
2018-09-27T16:15:53.432Z,22.40
2018-09-27T16:18:21.980Z,22.40
2018-09-27T16:20:50.415Z,22.30
2018-09-27T16:23:18.849Z,22.20
2018-09-27T16:25:47.284Z,22.20
2018-09-27T16:28:15.732Z,22.20
2018-09-27T16:30:44.145Z,22.10
2018-09-27T16:33:12.708Z,22.00
2018-09-27T16:35:41.256Z,22.00
2018-09-27T16:38:09.656Z,21.90
2018-09-27T16:40:38.113Z,21.70
2018-09-27T16:43:07.257Z,21.60
2018-09-27T16:45:35.746Z,21.60
2018-09-27T16:48:04.319Z,21.50
2018-09-27T16:50:32.814Z,21.30
2018-09-27T16:53:01.351Z,21.30
2018-09-27T16:55:29.794Z,21.10
2018-09-27T16:57:58.232Z,20.90
2018-09-27T17:00:26.801Z,20.90
2018-09-27T17:02:55.611Z,20.80
2018-09-27T17:05:24.088Z,20.60
2018-09-27T17:07:52.506Z,20.60
2018-09-27T17:10:20.931Z,20.50
2018-09-27T17:12:49.320Z,20.50
2018-09-27T17:15:17.780Z,20.40
2018-09-27T17:17:46.360Z,20.20
2018-09-27T17:20:14.744Z,20.10
2018-09-27T17:22:43.349Z,19.90
2018-09-27T17:25:11.747Z,19.70
2018-09-27T17:27:40.202Z,19.50
2018-09-27T17:30:08.795Z,19.30
2018-09-27T17:32:37.277Z,19.20
2018-09-27T17:35:05.816Z,19.00
2018-09-27T17:37:34.311Z,18.80
2018-09-27T17:40:03.309Z,18.60
2018-09-27T17:42:31.767Z,18.40
2018-09-27T17:45:00.311Z,18.50
2018-09-27T17:47:28.717Z,18.40
2018-09-27T17:49:57.252Z,18.30
2018-09-27T17:52:25.665Z,18.30
2018-09-27T17:54:54.097Z,18.20
2018-09-27T17:57:23.494Z,18.20
2018-09-27T17:59:54.143Z,18.10
2018-09-27T18:02:23.347Z,18.10
2018-09-27T18:04:51.888Z,17.90
2018-09-27T18:07:20.575Z,17.80
2018-09-27T18:09:49.284Z,17.80
2018-09-27T18:12:17.751Z,17.60
2018-09-27T18:14:46.193Z,17.50
2018-09-27T18:17:14.664Z,17.30
2018-09-27T18:19:43.281Z,17.20
2018-09-27T18:22:11.659Z,17.20
2018-09-27T18:24:40.090Z,17.10
2018-09-27T18:27:08.602Z,17.00
2018-09-27T18:29:37.022Z,16.90
2018-09-27T18:32:05.601Z,16.90
2018-09-27T18:34:34.215Z,16.80
2018-09-27T18:37:02.639Z,16.90
2018-09-27T18:39:31.059Z,16.70
2018-09-27T18:41:59.469Z,16.80
2018-09-27T18:44:27.944Z,16.80
2018-09-27T18:46:56.350Z,16.60
2018-09-27T18:49:24.871Z,16.70
2018-09-27T18:51:53.354Z,16.60
2018-09-27T18:54:21.776Z,16.60
2018-09-27T18:56:50.322Z,16.60
2018-09-27T18:59:18.772Z,16.50
2018-09-27T19:01:47.228Z,16.40
2018-09-27T19:04:15.811Z,16.40
2018-09-27T19:06:44.224Z,16.30
2018-09-27T19:09:14.105Z,16.20
2018-09-27T19:11:42.515Z,16.20
2018-09-27T19:14:10.955Z,16.20
2018-09-27T19:16:39.388Z,16.10
2018-09-27T19:19:07.864Z,16.00
2018-09-27T19:21:36.292Z,16.00
2018-09-27T19:24:04.702Z,16.00
2018-09-27T19:26:33.100Z,16.00
2018-09-27T19:29:01.683Z,15.90
2018-09-27T19:31:30.107Z,16.00
2018-09-27T19:33:58.651Z,15.90
2018-09-27T19:36:27.303Z,16.00
2018-09-27T19:38:55.744Z,15.80
2018-09-27T19:41:24.176Z,15.80
2018-09-27T19:43:52.741Z,15.70
2018-09-27T19:46:21.167Z,15.70
2018-09-27T19:48:49.684Z,15.60
2018-09-27T19:51:18.178Z,15.60
2018-09-27T19:53:46.684Z,15.50
2018-09-27T19:56:15.302Z,15.50
2018-09-27T19:58:43.721Z,15.40
2018-09-27T20:01:12.148Z,15.40
2018-09-27T20:03:40.585Z,15.30
2018-09-27T20:06:09.042Z,15.20
2018-09-27T20:08:37.538Z,15.20
2018-09-27T20:11:06.225Z,15.10
2018-09-27T20:13:34.650Z,15.00
2018-09-27T20:16:03.964Z,15.00
2018-09-27T20:18:32.383Z,14.90
2018-09-27T20:21:01.246Z,14.90
2018-09-27T20:23:29.724Z,14.80
2018-09-27T20:25:58.313Z,14.80
2018-09-27T20:28:26.794Z,14.80
2018-09-27T20:30:55.322Z,14.70
2018-09-27T20:33:23.854Z,14.70
2018-09-27T20:35:52.277Z,14.60
2018-09-27T20:38:20.701Z,14.60
2018-09-27T20:40:49.114Z,14.50
2018-09-27T20:43:17.549Z,14.40
2018-09-27T20:45:45.979Z,14.30
2018-09-27T20:48:14.565Z,14.40
2018-09-27T20:50:45.879Z,14.30
2018-09-27T20:53:16.094Z,14.20
2018-09-27T20:55:46.226Z,14.10
2018-09-27T20:58:16.231Z,14.10
2018-09-27T21:00:46.112Z,14.20
2018-09-27T21:03:15.152Z,14.10
2018-09-27T21:05:44.499Z,14.10
2018-09-27T21:08:20.272Z,14.00
2018-09-27T21:10:53.346Z,14.00
2018-09-27T21:13:24.373Z,13.90
2018-09-27T21:15:54.977Z,13.80
2018-09-27T21:18:25.641Z,13.80
2018-09-27T21:20:55.543Z,13.90
2018-09-27T21:23:29.600Z,13.80
2018-09-27T21:26:00.490Z,13.70
2018-09-27T21:28:29.015Z,13.60
2018-09-27T21:30:57.447Z,13.70
2018-09-27T21:33:26.027Z,13.70
2018-09-27T21:35:55.056Z,13.60
2018-09-27T21:38:23.468Z,13.70
2018-09-27T21:40:52.010Z,13.60
2018-09-27T21:43:20.618Z,13.50
2018-09-27T21:45:48.974Z,13.40
2018-09-27T21:48:17.371Z,13.50
2018-09-27T21:50:45.861Z,13.30
2018-09-27T21:53:14.298Z,13.40
2018-09-27T21:55:42.736Z,13.40
2018-09-27T21:58:11.164Z,13.40
2018-09-27T22:00:39.625Z,13.40
2018-09-27T22:03:08.027Z,13.40
2018-09-27T22:05:36.558Z,13.30
2018-09-27T22:08:04.965Z,13.30
2018-09-27T22:10:33.363Z,13.30
2018-09-27T22:13:01.753Z,13.20
2018-09-27T22:15:30.168Z,13.10
2018-09-27T22:17:58.581Z,13.10
2018-09-27T22:20:26.999Z,13.00
2018-09-27T22:22:55.500Z,13.00
2018-09-27T22:25:23.902Z,12.80
2018-09-27T22:27:52.531Z,12.80
2018-09-27T22:30:20.963Z,12.60
2018-09-27T22:32:49.452Z,12.60
2018-09-27T22:35:18.003Z,12.50
2018-09-27T22:37:46.446Z,12.50
2018-09-27T22:40:14.867Z,12.50
2018-09-27T22:42:43.436Z,12.50
2018-09-27T22:45:11.991Z,12.50
2018-09-27T22:47:40.395Z,12.60
2018-09-27T22:50:08.924Z,12.50
2018-09-27T22:52:38.144Z,12.40
2018-09-27T22:55:06.609Z,12.40
2018-09-27T22:57:35.049Z,12.40
2018-09-27T23:00:03.515Z,12.40
2018-09-27T23:02:31.948Z,12.30
2018-09-27T23:05:00.387Z,12.30
2018-09-27T23:07:28.784Z,12.20
2018-09-27T23:09:57.336Z,12.10
2018-09-27T23:12:25.757Z,12.00
2018-09-27T23:14:54.220Z,12.00
2018-09-27T23:17:22.631Z,12.00
2018-09-27T23:19:51.110Z,12.00
2018-09-27T23:22:19.514Z,12.00
2018-09-27T23:24:47.919Z,11.90
2018-09-27T23:27:16.377Z,11.90
2018-09-27T23:29:44.786Z,11.90
2018-09-27T23:32:13.308Z,11.90
2018-09-27T23:34:41.793Z,11.90
2018-09-27T23:37:10.230Z,11.90
2018-09-27T23:39:38.635Z,11.80
2018-09-27T23:42:07.084Z,11.80
2018-09-27T23:44:35.595Z,11.70
2018-09-27T23:47:04.015Z,11.70
2018-09-27T23:49:33.307Z,11.60
2018-09-27T23:52:01.747Z,11.70
2018-09-27T23:54:30.308Z,11.70
2018-09-27T23:56:58.712Z,11.70
2018-09-27T23:59:27.226Z,11.60
